Terminal Aerodrome Forecast
Issued by NWS

Home | Current Version | Previous Version | Text Only | Print | Product List | Glossary On
Versions: 1 2 3 4 5 6 7 8 9 10 11 12 13 14 15 16 17 18 19 20 21 22 23 24 25
000
FTUS41 KGYX 291728
TAFLEB
TAF
KLEB 291728Z 2918/3018 VRB03KT P6SM BKN250
     FM300000 VRB03KT P6SM OVC080
     FM300600 VRB03KT 2SM -SN BR OVC015
     FM301200 VRB03KT 1SM -SN BR OVC004=

USA.gov is the U.S. government's official web portal to all federal, state and local government web resources and services.